Time;durP1;ratioP1;P1;durP2;ratioP2;P2;SDS_P1;SDS_P2;PMS_P1;PMS_P2;Temp;Humidity;BMP_temperature;BMP_pressure;BME280_temperature;BME280_humidity;BME280_pressure;Samples;Min_cycle;Max_cycle;Signal;HPM_P1;HPM_P2
2022/11/11 00:00:41;;;;;;;12.88;5.80;;;;;;;;;;5060364;28;20434;-78
2022/11/11 00:03:09;;;;;;;16.52;6.18;;;;;;;;;;5060995;28;20767;-81
2022/11/11 00:05:36;;;;;;;12.38;5.30;;;;;;;;;;5061239;28;20419;-78
2022/11/11 00:08:02;;;;;;;12.52;6.03;;;;;;;;;;5057692;28;20432;-80
2022/11/11 00:10:30;;;;;;;12.98;5.90;;;;;;;;;;5056190;28;20430;-80
2022/11/11 00:12:59;;;;;;;13.23;5.88;;;;;;;;;;5060711;28;20444;-80
2022/11/11 00:15:25;;;;;;;18.07;5.47;;;;;;;;;;5059608;28;20432;-80
2022/11/11 00:26:14;;;;;;;9.68;4.60;;;;;;;;;;5079465;28;20819;-80
2022/11/11 00:28:40;;;;;;;10.80;4.23;;;;;;;;;;5079361;28;20424;-81
2022/11/11 00:31:08;;;;;;;9.57;4.60;;;;;;;;;;5059948;28;20437;-80
2022/11/11 00:33:34;;;;;;;8.53;4.00;;;;;;;;;;5059609;28;20469;-79
2022/11/11 00:36:00;;;;;;;11.43;4.38;;;;;;;;;;5059291;28;20413;-80
2022/11/11 00:38:45;;;;;;;12.77;4.22;;;;;;;;;;5059057;28;20420;-78
2022/11/11 00:41:14;;;;;;;8.20;4.40;;;;;;;;;;5060558;28;20412;-81
2022/11/11 00:43:40;;;;;;;10.85;4.40;;;;;;;;;;5061506;28;20431;-79
2022/11/11 00:51:35;;;;;;;10.27;4.55;;;;;;;;;;5060192;28;20408;-79
2022/11/11 00:54:01;;;;;;;9.20;4.57;;;;;;;;;;5063779;28;20415;-79
2022/11/11 00:56:30;;;;;;;8.70;4.50;;;;;;;;;;5059801;28;20419;-79
2022/11/11 00:58:56;;;;;;;12.68;5.15;;;;;;;;;;5062424;28;20416;-79
2022/11/11 01:01:24;;;;;;;12.43;5.33;;;;;;;;;;5061875;28;20519;-78
2022/11/11 01:03:50;;;;;;;13.13;5.55;;;;;;;;;;5053233;28;20429;-81
2022/11/11 01:06:16;;;;;;;11.45;5.50;;;;;;;;;;5065205;28;20436;-80
2022/11/11 01:08:43;;;;;;;10.20;4.90;;;;;;;;;;5061151;28;20432;-81
2022/11/11 01:11:15;;;;;;;12.07;4.90;;;;;;;;;;5062190;28;20432;-80
2022/11/11 01:13:43;;;;;;;13.45;5.47;;;;;;;;;;5063357;28;20975;-80
2022/11/11 01:16:11;;;;;;;14.32;5.53;;;;;;;;;;5064741;28;20413;-81
2022/11/11 01:18:38;;;;;;;10.98;5.13;;;;;;;;;;5064490;28;20425;-81
2022/11/11 01:21:06;;;;;;;12.07;5.85;;;;;;;;;;5062403;28;20429;-81
2022/11/11 01:23:34;;;;;;;9.48;5.00;;;;;;;;;;5059946;28;20435;-81
2022/11/11 01:26:03;;;;;;;11.07;5.65;;;;;;;;;;5062277;28;20420;-81
2022/11/11 01:28:29;;;;;;;11.48;5.90;;;;;;;;;;5062667;28;20450;-80
2022/11/11 01:31:02;;;;;;;10.52;5.40;;;;;;;;;;5065329;28;20615;-81
2022/11/11 01:33:29;;;;;;;10.55;5.90;;;;;;;;;;5058917;28;20426;-81
2022/11/11 01:35:55;;;;;;;12.27;5.63;;;;;;;;;;5062756;28;20938;-81
2022/11/11 01:38:21;;;;;;;13.13;5.80;;;;;;;;;;5058248;28;20429;-80
2022/11/11 01:40:48;;;;;;;12.25;5.85;;;;;;;;;;5065393;28;20934;-80
2022/11/11 01:43:17;;;;;;;15.97;6.10;;;;;;;;;;5061440;28;20796;-79
2022/11/11 01:45:46;;;;;;;11.63;6.05;;;;;;;;;;5062322;28;20421;-79
2022/11/11 01:51:01;;;;;;;11.57;7.38;;;;;;;;;;5058852;28;20994;-79
2022/11/11 01:53:27;;;;;;;16.10;7.10;;;;;;;;;;5058719;28;20433;-79
2022/11/11 01:55:54;;;;;;;14.60;7.85;;;;;;;;;;5061273;28;20427;-79
2022/11/11 01:58:21;;;;;;;13.80;7.22;;;;;;;;;;5061372;28;20445;-79
2022/11/11 02:00:47;;;;;;;11.60;6.80;;;;;;;;;;5059895;28;20436;-79
2022/11/11 02:03:16;;;;;;;12.85;7.10;;;;;;;;;;5062583;28;20797;-78
2022/11/11 02:05:42;;;;;;;15.90;7.30;;;;;;;;;;5058879;28;20421;-79
2022/11/11 02:08:10;;;;;;;12.60;8.30;;;;;;;;;;5059355;28;20419;-79
2022/11/11 02:10:39;;;;;;;14.57;7.20;;;;;;;;;;5059056;28;20416;-79
2022/11/11 02:15:50;;;;;;;16.35;7.47;;;;;;;;;;5064345;28;20924;-79
2022/11/11 02:18:18;;;;;;;12.60;7.90;;;;;;;;;;5059051;28;20413;-79
2022/11/11 02:20:44;;;;;;;15.02;8.70;;;;;;;;;;5061656;28;20932;-79
2022/11/11 02:23:13;;;;;;;13.07;7.65;;;;;;;;;;5063496;28;20419;-78
2022/11/11 02:25:42;;;;;;;14.48;8.77;;;;;;;;;;5064459;28;20423;-78
2022/11/11 02:28:09;;;;;;;13.65;8.75;;;;;;;;;;5062342;28;20424;-79
2022/11/11 02:30:36;;;;;;;18.25;8.90;;;;;;;;;;5062495;28;20413;-79
2022/11/11 02:33:03;;;;;;;13.38;8.60;;;;;;;;;;5062646;28;20428;-79
2022/11/11 02:35:32;;;;;;;12.60;8.73;;;;;;;;;;5059490;28;20436;-79
2022/11/11 02:37:58;;;;;;;13.25;8.50;;;;;;;;;;5066192;28;20423;-79
2022/11/11 02:40:26;;;;;;;13.90;8.97;;;;;;;;;;5064447;28;20413;-79
2022/11/11 02:42:54;;;;;;;20.15;9.30;;;;;;;;;;5063468;28;20421;-79
2022/11/11 02:45:20;;;;;;;14.35;9.13;;;;;;;;;;5062388;28;20416;-79
2022/11/11 02:47:47;;;;;;;17.15;9.23;;;;;;;;;;5063810;28;20413;-79
2022/11/11 02:50:14;;;;;;;20.67;9.23;;;;;;;;;;5062467;28;20413;-79
2022/11/11 02:52:40;;;;;;;17.60;9.73;;;;;;;;;;5065800;28;20471;-81
2022/11/11 02:55:07;;;;;;;15.18;9.13;;;;;;;;;;5061014;28;20420;-81
2022/11/11 02:57:34;;;;;;;16.45;9.80;;;;;;;;;;5057806;28;20432;-78
2022/11/11 03:00:03;;;;;;;14.15;9.15;;;;;;;;;;5057380;28;20426;-81
2022/11/11 03:02:29;;;;;;;18.42;8.20;;;;;;;;;;5073378;28;20403;-79
2022/11/11 03:04:56;;;;;;;15.23;9.50;;;;;;;;;;5060501;28;20417;-79
2022/11/11 03:07:22;;;;;;;18.20;9.50;;;;;;;;;;5063186;28;20430;-79
2022/11/11 03:09:51;;;;;;;16.35;8.80;;;;;;;;;;5061398;28;20420;-78
2022/11/11 03:12:17;;;;;;;11.80;8.02;;;;;;;;;;5061901;28;20419;-81
2022/11/11 03:14:43;;;;;;;14.77;9.27;;;;;;;;;;5057755;28;20412;-79
2022/11/11 03:21:03;;;;;;;13.75;8.70;;;;;;;;;;5060757;28;20419;-81
2022/11/11 03:22:42;;;;;;;15.55;9.55;;;;;;;;;;5059599;28;20480;-81
2022/11/11 03:27:54;;;;;;;18.33;9.57;;;;;;;;;;5060387;28;20419;-81
2022/11/11 03:30:20;;;;;;;15.75;9.00;;;;;;;;;;5061954;28;20418;-79
2022/11/11 03:32:48;;;;;;;16.92;8.60;;;;;;;;;;5062672;28;20411;-80
2022/11/11 03:35:14;;;;;;;15.60;8.93;;;;;;;;;;5061111;28;20419;-78
2022/11/11 03:40:33;;;;;;;11.68;8.70;;;;;;;;;;5031847;28;21012;-79
2022/11/11 03:43:01;;;;;;;17.70;8.45;;;;;;;;;;5068545;28;20419;-79
2022/11/11 03:45:28;;;;;;;13.60;9.85;;;;;;;;;;5059733;28;20937;-81
2022/11/11 03:47:55;;;;;;;15.75;9.20;;;;;;;;;;5059807;28;20437;-81
2022/11/11 03:50:22;;;;;;;17.65;9.70;;;;;;;;;;5060141;28;20423;-80
2022/11/11 03:52:49;;;;;;;16.48;9.55;;;;;;;;;;5062943;28;20778;-79
2022/11/11 03:55:15;;;;;;;18.20;9.35;;;;;;;;;;5062891;28;20412;-81
2022/11/11 03:57:42;;;;;;;18.40;10.13;;;;;;;;;;5060736;28;20411;-80
2022/11/11 04:00:10;;;;;;;18.85;9.55;;;;;;;;;;5061250;28;21029;-81
2022/11/11 04:10:54;;;;;;;16.80;9.60;;;;;;;;;;5056978;28;20505;-80
2022/11/11 04:16:08;;;;;;;12.45;9.13;;;;;;;;;;5058298;28;20417;-81
2022/11/11 04:25:47;;;;;;;15.75;9.75;;;;;;;;;;5063134;28;20403;-79
2022/11/11 04:26:52;;;;;;;14.68;10.00;;;;;;;;;;5060339;28;20515;-81
2022/11/11 04:29:31;;;;;;;13.98;10.07;;;;;;;;;;5058848;28;20415;-80
2022/11/11 04:34:43;;;;;;;15.25;9.90;;;;;;;;;;5059266;28;20409;-80
2022/11/11 04:37:11;;;;;;;19.40;10.47;;;;;;;;;;5061034;28;20428;-80
2022/11/11 04:42:21;;;;;;;14.43;10.27;;;;;;;;;;5061912;28;20445;-78
2022/11/11 04:47:31;;;;;;;17.73;10.48;;;;;;;;;;5062202;28;20415;-79
2022/11/11 04:49:58;;;;;;;18.55;10.27;;;;;;;;;;5065119;28;20428;-78
2022/11/11 04:52:27;;;;;;;15.65;10.10;;;;;;;;;;5058170;28;20436;-78
2022/11/11 04:57:40;;;;;;;18.30;11.38;;;;;;;;;;5064293;28;20416;-80
2022/11/11 05:00:07;;;;;;;17.85;11.85;;;;;;;;;;5068279;28;20411;-79
2022/11/11 05:05:18;;;;;;;17.23;12.05;;;;;;;;;;5060127;28;20443;-79
2022/11/11 05:10:29;;;;;;;22.30;12.20;;;;;;;;;;5061990;28;20435;-79
2022/11/11 05:21:19;;;;;;;17.58;12.85;;;;;;;;;;5064627;28;20820;-79
2022/11/11 05:21:23;;;;;;;21.40;14.30;;;;;;;;;;5066082;28;20446;-79
2022/11/11 05:26:35;;;;;;;25.08;15.50;;;;;;;;;;5063327;28;20423;-79
2022/11/11 05:29:01;;;;;;;21.85;15.05;;;;;;;;;;5058983;28;20429;-79
2022/11/11 05:31:28;;;;;;;23.13;15.38;;;;;;;;;;5060695;28;20428;-79
2022/11/11 05:33:54;;;;;;;20.45;15.05;;;;;;;;;;5061096;28;20921;-79
2022/11/11 05:36:22;;;;;;;22.13;16.67;;;;;;;;;;5060635;28;20421;-78
2022/11/11 05:38:48;;;;;;;26.55;16.50;;;;;;;;;;5062010;28;20438;-79
2022/11/11 05:41:16;;;;;;;24.30;16.50;;;;;;;;;;5063869;28;20793;-83
2022/11/11 05:43:44;;;;;;;23.75;16.20;;;;;;;;;;5063302;28;20425;-80
2022/11/11 05:46:11;;;;;;;28.42;17.48;;;;;;;;;;5065242;28;20424;-82
2022/11/11 05:49:13;;;;;;;29.85;17.00;;;;;;;;;;5069057;28;20421;-80
2022/11/11 05:51:27;;;;;;;25.45;16.90;;;;;;;;;;5065124;28;20445;-81
2022/11/11 05:53:54;;;;;;;23.90;16.30;;;;;;;;;;5063818;28;20432;-81
2022/11/11 05:56:22;;;;;;;26.00;18.17;;;;;;;;;;5062362;28;20472;-80
2022/11/11 05:58:48;;;;;;;24.27;17.52;;;;;;;;;;5064566;28;20431;-81
2022/11/11 06:01:15;;;;;;;27.88;17.30;;;;;;;;;;5065919;28;20543;-80
2022/11/11 06:03:41;;;;;;;25.90;16.80;;;;;;;;;;5065518;28;20494;-83
2022/11/11 06:06:08;;;;;;;24.55;17.65;;;;;;;;;;5064716;28;20440;-80
2022/11/11 06:08:34;;;;;;;27.77;17.95;;;;;;;;;;5063801;28;20408;-81
2022/11/11 06:11:01;;;;;;;27.50;17.20;;;;;;;;;;5066333;28;20424;-82
2022/11/11 06:13:29;;;;;;;28.60;17.58;;;;;;;;;;5064062;28;20416;-80
2022/11/11 06:15:56;;;;;;;26.58;18.52;;;;;;;;;;5065953;28;20428;-81
2022/11/11 06:18:22;;;;;;;28.27;18.15;;;;;;;;;;5067324;28;20432;-81
2022/11/11 06:20:52;;;;;;;27.67;17.48;;;;;;;;;;5066694;28;20425;-81
2022/11/11 06:23:18;;;;;;;30.25;18.13;;;;;;;;;;5068866;28;20409;-82
2022/11/11 06:28:29;;;;;;;30.17;18.13;;;;;;;;;;5057494;28;20408;-81
2022/11/11 06:30:56;;;;;;;27.83;18.90;;;;;;;;;;5063995;28;20807;-80
2022/11/11 06:33:22;;;;;;;28.33;18.00;;;;;;;;;;4997779;28;1906112;-81
2022/11/11 06:35:49;;;;;;;29.80;18.15;;;;;;;;;;5065017;28;20434;-81
2022/11/11 06:38:15;;;;;;;29.67;17.70;;;;;;;;;;5070681;28;20448;-80
2022/11/11 06:40:42;;;;;;;34.85;19.55;;;;;;;;;;5062143;28;20416;-80
2022/11/11 06:43:08;;;;;;;28.38;18.95;;;;;;;;;;5059624;28;20434;-80
2022/11/11 06:45:36;;;;;;;32.95;19.55;;;;;;;;;;5063375;28;20794;-80
2022/11/11 06:48:03;;;;;;;30.53;18.93;;;;;;;;;;5060991;28;20432;-80
2022/11/11 06:50:29;;;;;;;28.95;19.77;;;;;;;;;;5061397;28;20418;-80
2022/11/11 06:52:56;;;;;;;33.38;19.45;;;;;;;;;;5064995;28;20435;-80
2022/11/11 06:55:24;;;;;;;27.60;18.55;;;;;;;;;;5061874;28;20487;-80
2022/11/11 06:57:50;;;;;;;29.45;18.80;;;;;;;;;;5058032;28;20421;-80
2022/11/11 07:00:17;;;;;;;30.40;19.00;;;;;;;;;;5061698;28;20413;-81
2022/11/11 07:02:46;;;;;;;32.10;19.85;;;;;;;;;;5060383;28;20923;-80
2022/11/11 07:05:13;;;;;;;29.92;19.35;;;;;;;;;;5061396;28;20429;-80
2022/11/11 07:07:39;;;;;;;26.50;18.48;;;;;;;;;;5096902;27;20432;-80
2022/11/11 07:10:09;;;;;;;28.73;20.25;;;;;;;;;;5060954;28;20906;-80
2022/11/11 07:12:35;;;;;;;30.50;20.75;;;;;;;;;;5063351;28;20440;-80
2022/11/11 07:15:02;;;;;;;32.22;19.35;;;;;;;;;;5062153;28;20440;-80
2022/11/11 07:17:29;;;;;;;29.65;18.83;;;;;;;;;;5060789;28;20421;-80
2022/11/11 07:19:57;;;;;;;29.58;20.17;;;;;;;;;;5092172;28;20431;-80
2022/11/11 07:22:24;;;;;;;30.90;20.38;;;;;;;;;;5057074;28;20429;-80
2022/11/11 07:24:50;;;;;;;32.37;20.67;;;;;;;;;;5064583;28;20965;-79
2022/11/11 07:27:16;;;;;;;33.25;19.73;;;;;;;;;;5069314;28;20421;-80
2022/11/11 07:29:43;;;;;;;29.60;17.67;;;;;;;;;;5060225;28;20427;-80
2022/11/11 07:32:11;;;;;;;33.42;19.88;;;;;;;;;;5057380;28;20427;-80
2022/11/11 07:34:37;;;;;;;34.35;20.42;;;;;;;;;;5082332;27;20430;-80
2022/11/11 07:37:05;;;;;;;30.35;18.45;;;;;;;;;;5081185;28;20420;-81
2022/11/11 07:39:31;;;;;;;26.60;18.15;;;;;;;;;;5062464;28;20426;-79
2022/11/11 07:41:58;;;;;;;24.67;18.08;;;;;;;;;;5063563;28;20502;-80
2022/11/11 07:44:24;;;;;;;31.63;18.90;;;;;;;;;;5062441;28;20433;-79
2022/11/11 07:46:50;;;;;;;31.30;20.10;;;;;;;;;;5055850;28;20423;-78
2022/11/11 07:49:18;;;;;;;30.23;19.90;;;;;;;;;;5056692;28;20451;-80
2022/11/11 07:51:44;;;;;;;27.23;18.58;;;;;;;;;;5056093;28;20436;-79
2022/11/11 07:54:12;;;;;;;29.40;19.33;;;;;;;;;;5056451;28;20492;-80
2022/11/11 07:56:38;;;;;;;30.95;19.42;;;;;;;;;;5056349;28;20431;-78
2022/11/11 07:59:05;;;;;;;35.05;20.60;;;;;;;;;;5061379;28;20425;-83
2022/11/11 08:01:31;;;;;;;28.98;19.02;;;;;;;;;;5068314;28;20427;-81
2022/11/11 08:03:59;;;;;;;30.10;19.52;;;;;;;;;;5069639;28;20416;-80
2022/11/11 08:06:26;;;;;;;31.67;20.13;;;;;;;;;;5067595;28;20421;-80
2022/11/11 08:08:54;;;;;;;30.20;19.65;;;;;;;;;;5063777;28;20443;-79
2022/11/11 08:14:02;;;;;;;29.50;21.25;;;;;;;;;;5067956;28;21126;-82
2022/11/11 08:16:28;;;;;;;28.20;19.38;;;;;;;;;;5068629;28;20889;-82
2022/11/11 08:18:57;;;;;;;31.83;21.58;;;;;;;;;;5066672;28;20413;-82
2022/11/11 08:21:26;;;;;;;28.73;18.90;;;;;;;;;;5067983;28;20481;-80
2022/11/11 08:23:52;;;;;;;29.50;19.50;;;;;;;;;;5068565;28;20911;-79
2022/11/11 08:26:22;;;;;;;30.33;19.27;;;;;;;;;;5066457;28;20431;-80
2022/11/11 08:28:51;;;;;;;27.88;19.95;;;;;;;;;;5066544;28;20469;-80
2022/11/11 08:31:19;;;;;;;29.45;19.58;;;;;;;;;;5066982;28;20502;-80
2022/11/11 08:33:49;;;;;;;28.73;20.17;;;;;;;;;;5073966;28;20412;-80
2022/11/11 08:36:15;;;;;;;30.07;19.10;;;;;;;;;;5070962;28;20475;-82
2022/11/11 08:38:42;;;;;;;30.85;20.83;;;;;;;;;;5072683;28;20500;-81
2022/11/11 08:41:12;;;;;;;29.43;19.57;;;;;;;;;;5069609;28;20418;-80
2022/11/11 08:43:38;;;;;;;29.55;18.73;;;;;;;;;;5071827;28;20433;-79
2022/11/11 08:46:07;;;;;;;30.40;20.08;;;;;;;;;;5070484;28;20413;-81
2022/11/11 08:48:34;;;;;;;28.75;19.20;;;;;;;;;;5070412;28;20421;-79
2022/11/11 08:51:00;;;;;;;29.70;19.75;;;;;;;;;;5067397;28;20436;-80
2022/11/11 08:53:27;;;;;;;29.27;20.02;;;;;;;;;;5067826;28;20795;-81
2022/11/11 08:55:54;;;;;;;30.83;20.55;;;;;;;;;;5070054;28;20438;-82
2022/11/11 08:58:28;;;;;;;33.15;21.33;;;;;;;;;;5071312;28;20961;-82
2022/11/11 09:00:56;;;;;;;29.05;19.50;;;;;;;;;;5068783;28;20434;-81
2022/11/11 09:03:27;;;;;;;31.83;19.70;;;;;;;;;;5066648;28;20428;-82
2022/11/11 09:05:53;;;;;;;27.85;19.27;;;;;;;;;;5068000;28;20429;-82
2022/11/11 09:08:23;;;;;;;30.35;20.85;;;;;;;;;;5068978;28;20432;-81
2022/11/11 09:10:50;;;;;;;27.83;18.98;;;;;;;;;;5069348;28;20421;-82
2022/11/11 09:13:16;;;;;;;29.80;20.42;;;;;;;;;;5066952;28;20424;-81
2022/11/11 09:15:43;;;;;;;28.77;19.65;;;;;;;;;;5073797;28;20429;-83
2022/11/11 09:18:16;;;;;;;28.48;19.67;;;;;;;;;;5062832;28;20427;-81
2022/11/11 09:20:44;;;;;;;33.95;19.85;;;;;;;;;;5072712;28;20500;-82
2022/11/11 09:23:12;;;;;;;32.28;20.50;;;;;;;;;;5066051;28;20433;-82
2022/11/11 09:25:39;;;;;;;29.05;19.98;;;;;;;;;;5069657;28;20429;-82
2022/11/11 09:28:06;;;;;;;31.83;20.02;;;;;;;;;;5067619;28;20417;-81
2022/11/11 09:30:33;;;;;;;31.02;19.27;;;;;;;;;;5069902;28;20456;-82
2022/11/11 09:33:01;;;;;;;28.77;18.85;;;;;;;;;;5069891;28;20420;-83
2022/11/11 09:35:28;;;;;;;27.48;19.02;;;;;;;;;;5068875;28;20455;-81
2022/11/11 09:37:57;;;;;;;32.80;19.30;;;;;;;;;;5074278;28;20415;-81
2022/11/11 09:40:26;;;;;;;29.52;18.70;;;;;;;;;;5070056;28;20431;-80
2022/11/11 09:43:00;;;;;;;32.67;19.35;;;;;;;;;;5077519;28;20421;-81
2022/11/11 09:45:37;;;;;;;25.80;18.27;;;;;;;;;;5075091;28;20476;-81
2022/11/11 09:48:09;;;;;;;28.02;18.17;;;;;;;;;;5066904;28;20479;-81
2022/11/11 09:50:38;;;;;;;35.42;19.95;;;;;;;;;;5072933;28;20432;-82
2022/11/11 09:53:10;;;;;;;26.77;19.70;;;;;;;;;;5067382;28;20421;-82
2022/11/11 09:55:38;;;;;;;27.80;19.02;;;;;;;;;;5065612;28;20428;-81
2022/11/11 09:58:06;;;;;;;28.42;19.63;;;;;;;;;;5067503;28;20412;-81
2022/11/11 10:00:36;;;;;;;27.43;18.60;;;;;;;;;;5068010;28;20429;-81
2022/11/11 10:03:06;;;;;;;28.73;18.80;;;;;;;;;;5063859;28;20422;-82
2022/11/11 10:05:34;;;;;;;29.52;19.23;;;;;;;;;;5065165;28;20425;-81
2022/11/11 10:08:02;;;;;;;29.85;19.42;;;;;;;;;;5069290;28;20424;-82
2022/11/11 10:10:35;;;;;;;28.03;18.17;;;;;;;;;;5066988;28;20423;-83
2022/11/11 10:13:03;;;;;;;29.88;18.83;;;;;;;;;;5068688;28;20429;-81
2022/11/11 10:15:34;;;;;;;30.23;19.50;;;;;;;;;;5063861;28;20976;-82
2022/11/11 10:18:09;;;;;;;27.25;18.42;;;;;;;;;;5061578;28;20424;-82
2022/11/11 10:20:41;;;;;;;30.67;19.25;;;;;;;;;;5067830;28;20444;-83
2022/11/11 10:23:18;;;;;;;28.55;18.15;;;;;;;;;;5067508;28;20774;-82
2022/11/11 10:25:52;;;;;;;25.58;17.52;;;;;;;;;;5072351;28;20421;-82
2022/11/11 10:28:21;;;;;;;26.52;17.30;;;;;;;;;;5068541;28;20426;-82
2022/11/11 10:30:48;;;;;;;29.58;17.15;;;;;;;;;;5071415;28;20479;-81
2022/11/11 10:33:18;;;;;;;25.58;17.65;;;;;;;;;;5064351;28;20425;-81
2022/11/11 10:35:46;;;;;;;25.47;17.30;;;;;;;;;;5063609;28;20490;-82
2022/11/11 10:38:29;;;;;;;25.73;17.02;;;;;;;;;;5067300;28;20429;-81
2022/11/11 10:40:59;;;;;;;25.08;16.83;;;;;;;;;;5069500;28;20433;-82
2022/11/11 10:43:27;;;;;;;24.48;16.55;;;;;;;;;;5069638;28;20413;-82
2022/11/11 10:45:58;;;;;;;22.45;15.90;;;;;;;;;;5065692;28;20420;-82
2022/11/11 10:48:29;;;;;;;20.97;15.20;;;;;;;;;;5066245;28;20955;-81
2022/11/11 10:50:57;;;;;;;27.30;17.02;;;;;;;;;;5073814;28;20432;-82
2022/11/11 10:53:31;;;;;;;21.97;15.90;;;;;;;;;;5064919;28;20415;-81
2022/11/11 10:56:02;;;;;;;22.88;15.77;;;;;;;;;;5068746;28;20426;-82
2022/11/11 10:58:31;;;;;;;20.73;15.02;;;;;;;;;;5067606;28;20778;-82
2022/11/11 11:01:01;;;;;;;21.33;15.20;;;;;;;;;;5065007;28;20817;-82
2022/11/11 11:03:30;;;;;;;27.03;15.40;;;;;;;;;;5067638;28;20943;-82
2022/11/11 11:06:02;;;;;;;23.58;14.98;;;;;;;;;;5063264;28;20429;-82
2022/11/11 11:08:30;;;;;;;23.05;15.40;;;;;;;;;;5067544;28;20448;-81
2022/11/11 11:10:59;;;;;;;23.25;15.93;;;;;;;;;;5070608;28;20922;-81
2022/11/11 11:13:32;;;;;;;21.95;15.40;;;;;;;;;;5076799;28;20412;-82
2022/11/11 11:16:02;;;;;;;21.40;14.60;;;;;;;;;;5081742;28;20903;-82
2022/11/11 11:18:30;;;;;;;22.50;13.95;;;;;;;;;;5079345;28;20946;-81
2022/11/11 11:20:58;;;;;;;19.60;14.60;;;;;;;;;;5063989;28;20460;-82
2022/11/11 11:23:37;;;;;;;25.90;16.10;;;;;;;;;;5068084;28;20415;-82
2022/11/11 11:26:04;;;;;;;20.90;14.63;;;;;;;;;;5069046;28;20414;-82
2022/11/11 11:28:33;;;;;;;19.42;14.75;;;;;;;;;;5065845;28;20948;-82
2022/11/11 11:31:00;;;;;;;22.10;15.57;;;;;;;;;;5065884;28;20452;-82
2022/11/11 11:33:27;;;;;;;22.53;14.40;;;;;;;;;;5068486;28;20416;-82
2022/11/11 11:35:53;;;;;;;18.25;14.25;;;;;;;;;;5067731;28;20428;-82
2022/11/11 11:38:22;;;;;;;21.15;14.50;;;;;;;;;;5068873;28;20415;-82
2022/11/11 11:40:50;;;;;;;19.93;14.90;;;;;;;;;;5060892;28;20417;-82
2022/11/11 11:43:26;;;;;;;19.58;15.27;;;;;;;;;;5067573;28;20934;-82
2022/11/11 11:45:56;;;;;;;20.67;14.35;;;;;;;;;;5069283;28;20421;-83
2022/11/11 11:48:29;;;;;;;19.83;15.02;;;;;;;;;;5067486;28;20518;-82
2022/11/11 11:50:57;;;;;;;20.10;14.55;;;;;;;;;;5069591;28;20421;-81
2022/11/11 11:53:28;;;;;;;20.53;15.00;;;;;;;;;;5067854;28;20427;-83
2022/11/11 11:55:57;;;;;;;17.20;13.87;;;;;;;;;;5068259;28;20412;-82
2022/11/11 11:58:34;;;;;;;19.30;12.55;;;;;;;;;;5067685;28;20428;-82
2022/11/11 12:01:04;;;;;;;20.00;13.63;;;;;;;;;;5063138;28;20412;-82
2022/11/11 12:03:42;;;;;;;15.98;11.65;;;;;;;;;;5063998;28;20421;-82
2022/11/11 12:06:12;;;;;;;17.63;11.52;;;;;;;;;;5066337;28;20434;-82
2022/11/11 12:08:46;;;;;;;17.25;11.90;;;;;;;;;;5067045;28;20422;-82
2022/11/11 12:11:18;;;;;;;19.58;12.50;;;;;;;;;;5066535;28;20441;-82
2022/11/11 12:13:50;;;;;;;16.75;12.98;;;;;;;;;;5066270;28;20968;-83
2022/11/11 12:16:23;;;;;;;15.02;11.00;;;;;;;;;;5064717;28;20428;-82
2022/11/11 12:19:01;;;;;;;16.90;10.60;;;;;;;;;;5064460;28;20534;-82
2022/11/11 12:21:30;;;;;;;16.08;11.00;;;;;;;;;;5066016;28;20423;-81
2022/11/11 12:23:58;;;;;;;19.65;11.10;;;;;;;;;;5064146;28;20427;-82
2022/11/11 12:26:28;;;;;;;15.90;10.77;;;;;;;;;;5070338;28;20401;-81
2022/11/11 12:29:02;;;;;;;12.10;9.48;;;;;;;;;;5063552;28;20420;-81
2022/11/11 12:31:40;;;;;;;14.83;10.67;;;;;;;;;;5061951;28;20786;-81
2022/11/11 12:34:21;;;;;;;13.77;9.63;;;;;;;;;;5063999;28;20424;-81
2022/11/11 12:36:54;;;;;;;13.90;9.50;;;;;;;;;;5064012;28;20425;-82
2022/11/11 12:39:27;;;;;;;11.85;9.40;;;;;;;;;;5064813;28;20410;-82
2022/11/11 12:42:01;;;;;;;10.57;8.88;;;;;;;;;;5067731;28;20803;-82
2022/11/11 12:44:33;;;;;;;13.30;8.40;;;;;;;;;;5066346;28;20429;-82
2022/11/11 12:47:12;;;;;;;13.13;9.17;;;;;;;;;;5064716;28;20899;-81
2022/11/11 12:49:49;;;;;;;16.33;8.80;;;;;;;;;;5065856;28;20921;-82
2022/11/11 12:52:19;;;;;;;12.27;8.30;;;;;;;;;;5067775;28;20415;-81
2022/11/11 12:54:54;;;;;;;14.70;8.00;;;;;;;;;;5069934;28;20419;-82
2022/11/11 12:57:25;;;;;;;12.98;8.10;;;;;;;;;;5063536;28;20415;-82
2022/11/11 13:00:01;;;;;;;10.48;7.65;;;;;;;;;;5066153;28;20500;-82
2022/11/11 13:02:48;;;;;;;8.68;6.88;;;;;;;;;;5064726;28;20429;-81
2022/11/11 13:05:17;;;;;;;12.55;7.50;;;;;;;;;;5064413;28;20433;-82
2022/11/11 13:08:01;;;;;;;8.57;6.60;;;;;;;;;;5068318;28;20413;-81
2022/11/11 13:10:30;;;;;;;10.18;6.60;;;;;;;;;;5068709;28;20417;-82
2022/11/11 13:13:02;;;;;;;9.32;6.53;;;;;;;;;;5070645;28;20798;-81
2022/11/11 13:15:28;;;;;;;9.65;6.40;;;;;;;;;;5068974;28;20482;-82
2022/11/11 13:17:58;;;;;;;9.23;6.47;;;;;;;;;;5070229;28;20430;-81
2022/11/11 13:20:36;;;;;;;11.33;6.57;;;;;;;;;;5071032;28;20421;-81
2022/11/11 13:23:08;;;;;;;10.95;6.68;;;;;;;;;;5071333;28;20406;-81
2022/11/11 13:25:35;;;;;;;8.70;6.10;;;;;;;;;;5063353;28;20475;-82
2022/11/11 13:28:03;;;;;;;11.18;6.35;;;;;;;;;;5070016;28;20801;-83
2022/11/11 13:30:39;;;;;;;8.80;5.97;;;;;;;;;;5072188;28;20435;-82
2022/11/11 13:33:08;;;;;;;10.15;6.10;;;;;;;;;;5068008;28;20412;-81
2022/11/11 13:35:39;;;;;;;7.97;5.30;;;;;;;;;;5067200;28;20423;-82
2022/11/11 13:38:06;;;;;;;11.40;5.77;;;;;;;;;;5067160;28;20413;-82
2022/11/11 13:40:37;;;;;;;9.15;5.70;;;;;;;;;;5067107;28;20416;-82
2022/11/11 13:43:04;;;;;;;10.30;5.63;;;;;;;;;;5067744;28;20929;-82
2022/11/11 13:45:33;;;;;;;6.28;4.90;;;;;;;;;;5070410;28;20788;-81
2022/11/11 13:48:01;;;;;;;8.33;5.40;;;;;;;;;;5065280;28;20412;-82
2022/11/11 13:50:31;;;;;;;8.10;5.10;;;;;;;;;;5070120;28;20436;-82
2022/11/11 13:52:59;;;;;;;8.48;5.10;;;;;;;;;;5072200;28;20512;-82
2022/11/11 13:55:29;;;;;;;9.45;5.25;;;;;;;;;;5068053;28;20418;-82
2022/11/11 13:57:55;;;;;;;7.15;5.07;;;;;;;;;;5067400;28;20414;-83
2022/11/11 14:00:26;;;;;;;10.70;5.20;;;;;;;;;;5066119;28;20459;-80
2022/11/11 14:03:09;;;;;;;5.88;4.53;;;;;;;;;;5068180;28;20419;-82
2022/11/11 14:05:37;;;;;;;8.73;4.35;;;;;;;;;;5035129;28;20429;-81
2022/11/11 14:08:04;;;;;;;9.38;4.85;;;;;;;;;;5068354;28;20927;-81
2022/11/11 14:10:49;;;;;;;8.10;4.65;;;;;;;;;;5071599;28;20967;-81
2022/11/11 14:13:34;;;;;;;8.13;3.90;;;;;;;;;;5070881;28;21031;-82
2022/11/11 14:16:01;;;;;;;11.30;4.80;;;;;;;;;;5069101;28;20498;-82
2022/11/11 14:18:37;;;;;;;7.38;4.50;;;;;;;;;;5066374;28;20417;-80
2022/11/11 14:21:08;;;;;;;8.25;4.70;;;;;;;;;;5068291;28;20427;-82
2022/11/11 14:23:36;;;;;;;7.75;4.30;;;;;;;;;;5066565;28;21046;-80
2022/11/11 14:26:23;;;;;;;5.90;4.25;;;;;;;;;;5069586;28;20430;-80
2022/11/11 14:28:53;;;;;;;7.97;4.40;;;;;;;;;;5065679;28;20417;-82
2022/11/11 14:31:43;;;;;;;7.70;4.87;;;;;;;;;;5066954;28;20920;-83
2022/11/11 14:34:15;;;;;;;10.35;5.50;;;;;;;;;;5049113;28;20428;-81
2022/11/11 14:36:48;;;;;;;9.88;6.13;;;;;;;;;;5068660;28;20425;-82
2022/11/11 14:39:29;;;;;;;7.03;5.18;;;;;;;;;;5068845;28;20410;-83
2022/11/11 14:41:55;;;;;;;7.13;5.20;;;;;;;;;;5061350;28;20409;-80
2022/11/11 14:44:40;;;;;;;8.90;4.55;;;;;;;;;;5071759;28;20925;-81
2022/11/11 14:47:24;;;;;;;11.35;5.00;;;;;;;;;;5066340;28;20417;-81
2022/11/11 14:49:53;;;;;;;12.07;5.32;;;;;;;;;;5066326;28;20449;-81
2022/11/11 14:52:24;;;;;;;11.00;5.30;;;;;;;;;;5067686;28;20461;-81
2022/11/11 14:54:53;;;;;;;9.77;4.97;;;;;;;;;;5067024;28;20432;-81
2022/11/11 14:57:22;;;;;;;7.65;4.65;;;;;;;;;;5066850;28;20433;-81
2022/11/11 14:59:51;;;;;;;8.70;4.20;;;;;;;;;;5067472;28;20407;-81
2022/11/11 15:02:26;;;;;;;6.55;4.43;;;;;;;;;;5066054;28;20428;-82
2022/11/11 15:04:53;;;;;;;10.00;4.90;;;;;;;;;;5067259;28;20407;-82
2022/11/11 15:07:28;;;;;;;7.50;4.65;;;;;;;;;;5064758;28;20423;-84
2022/11/11 15:09:59;;;;;;;10.02;4.55;;;;;;;;;;5067854;28;20440;-83
2022/11/11 15:12:36;;;;;;;10.68;4.97;;;;;;;;;;5062501;28;20418;-83
2022/11/11 15:15:08;;;;;;;9.32;5.05;;;;;;;;;;5062124;28;20908;-81
2022/11/11 15:17:40;;;;;;;10.50;4.60;;;;;;;;;;5064556;28;20422;-82
2022/11/11 15:20:25;;;;;;;9.35;4.10;;;;;;;;;;5066574;28;20424;-80
2022/11/11 15:22:57;;;;;;;8.87;5.00;;;;;;;;;;5063326;28;20425;-81
2022/11/11 15:25:28;;;;;;;6.88;4.35;;;;;;;;;;5066968;28;20416;-81
2022/11/11 15:27:57;;;;;;;7.32;4.25;;;;;;;;;;5065695;28;20414;-81
2022/11/11 15:30:35;;;;;;;10.10;4.60;;;;;;;;;;5069998;28;20430;-80
2022/11/11 15:33:06;;;;;;;7.25;4.35;;;;;;;;;;5066762;28;20414;-82
2022/11/11 15:35:37;;;;;;;5.80;4.10;;;;;;;;;;5066242;28;20431;-81
2022/11/11 15:38:06;;;;;;;8.70;4.45;;;;;;;;;;5063640;28;20644;-81
2022/11/11 15:40:42;;;;;;;7.63;4.55;;;;;;;;;;5063295;28;20425;-81
2022/11/11 15:43:13;;;;;;;7.85;5.10;;;;;;;;;;5064584;28;20483;-81
2022/11/11 15:45:41;;;;;;;6.53;4.60;;;;;;;;;;5068450;28;20913;-81
2022/11/11 15:48:13;;;;;;;9.07;5.25;;;;;;;;;;5065358;28;20431;-81
2022/11/11 15:50:40;;;;;;;11.63;5.03;;;;;;;;;;5065422;28;20425;-81
2022/11/11 15:53:11;;;;;;;7.73;4.60;;;;;;;;;;5062736;28;20411;-82